sensor_id;sensor_type;location;lat;lon;timestamp;temperature;humidity
18085;DHT22;9169;44.492;11.372;2024-03-02T00:01:34;15.50;81.90
18085;DHT22;9169;44.492;11.372;2024-03-02T00:04:05;15.50;82.00
18085;DHT22;9169;44.492;11.372;2024-03-02T00:06:35;15.50;82.10
18085;DHT22;9169;44.492;11.372;2024-03-02T00:09:04;15.50;82.10
18085;DHT22;9169;44.492;11.372;2024-03-02T00:11:35;15.50;82.30
18085;DHT22;9169;44.492;11.372;2024-03-02T00:14:04;15.50;82.30
18085;DHT22;9169;44.492;11.372;2024-03-02T00:16:33;15.50;82.20
18085;DHT22;9169;44.492;11.372;2024-03-02T00:19:02;15.50;82.90
18085;DHT22;9169;44.492;11.372;2024-03-02T00:21:33;15.50;82.20
18085;DHT22;9169;44.492;11.372;2024-03-02T00:24:12;15.50;82.20
18085;DHT22;9169;44.492;11.372;2024-03-02T00:26:46;15.50;82.30
18085;DHT22;9169;44.492;11.372;2024-03-02T00:29:16;15.60;82.50
18085;DHT22;9169;44.492;11.372;2024-03-02T00:31:45;15.50;82.50
18085;DHT22;9169;44.492;11.372;2024-03-02T00:34:16;15.50;82.60
18085;DHT22;9169;44.492;11.372;2024-03-02T00:36:46;15.40;82.50
18085;DHT22;9169;44.492;11.372;2024-03-02T00:39:16;15.40;82.70
18085;DHT22;9169;44.492;11.372;2024-03-02T00:41:45;15.40;82.60
18085;DHT22;9169;44.492;11.372;2024-03-02T00:44:15;15.40;82.50
18085;DHT22;9169;44.492;11.372;2024-03-02T00:46:44;15.40;82.70
18085;DHT22;9169;44.492;11.372;2024-03-02T00:49:18;15.40;82.80
18085;DHT22;9169;44.492;11.372;2024-03-02T00:51:51;15.40;83.60
18085;DHT22;9169;44.492;11.372;2024-03-02T00:54:20;15.40;83.60
18085;DHT22;9169;44.492;11.372;2024-03-02T00:56:48;15.40;83.00
18085;DHT22;9169;44.492;11.372;2024-03-02T00:59:19;15.40;83.10
18085;DHT22;9169;44.492;11.372;2024-03-02T01:01:48;15.40;83.20
18085;DHT22;9169;44.492;11.372;2024-03-02T01:04:19;15.40;83.30
18085;DHT22;9169;44.492;11.372;2024-03-02T01:06:49;15.40;83.30
18085;DHT22;9169;44.492;11.372;2024-03-02T01:09:18;15.40;83.30
18085;DHT22;9169;44.492;11.372;2024-03-02T01:11:47;15.40;83.20
18085;DHT22;9169;44.492;11.372;2024-03-02T01:14:16;15.40;83.20
18085;DHT22;9169;44.492;11.372;2024-03-02T01:16:45;15.40;83.20
18085;DHT22;9169;44.492;11.372;2024-03-02T01:19:13;15.40;83.20
18085;DHT22;9169;44.492;11.372;2024-03-02T01:21:42;15.40;83.10
18085;DHT22;9169;44.492;11.372;2024-03-02T01:24:12;15.40;83.10
18085;DHT22;9169;44.492;11.372;2024-03-02T01:26:41;15.40;83.20
18085;DHT22;9169;44.492;11.372;2024-03-02T01:29:09;15.40;83.10
18085;DHT22;9169;44.492;11.372;2024-03-02T01:31:38;15.40;83.10
18085;DHT22;9169;44.492;11.372;2024-03-02T01:34:09;15.40;83.10
18085;DHT22;9169;44.492;11.372;2024-03-02T01:36:37;15.40;83.10
18085;DHT22;9169;44.492;11.372;2024-03-02T01:39:06;15.40;83.10
18085;DHT22;9169;44.492;11.372;2024-03-02T01:41:38;15.40;83.00
18085;DHT22;9169;44.492;11.372;2024-03-02T01:44:07;15.40;82.90
18085;DHT22;9169;44.492;11.372;2024-03-02T01:46:35;15.40;82.90
18085;DHT22;9169;44.492;11.372;2024-03-02T01:49:04;15.40;83.00
18085;DHT22;9169;44.492;11.372;2024-03-02T01:51:33;15.40;83.00
18085;DHT22;9169;44.492;11.372;2024-03-02T01:54:01;15.40;83.10
18085;DHT22;9169;44.492;11.372;2024-03-02T01:56:30;15.30;83.00
18085;DHT22;9169;44.492;11.372;2024-03-02T01:59:00;15.30;83.10
18085;DHT22;9169;44.492;11.372;2024-03-02T02:01:28;15.30;83.10
18085;DHT22;9169;44.492;11.372;2024-03-02T02:03:58;15.30;83.80
18085;DHT22;9169;44.492;11.372;2024-03-02T02:06:28;15.20;83.10
18085;DHT22;9169;44.492;11.372;2024-03-02T02:08:56;15.20;83.90
18085;DHT22;9169;44.492;11.372;2024-03-02T02:11:25;15.20;83.40
18085;DHT22;9169;44.492;11.372;2024-03-02T02:13:54;15.20;83.30
18085;DHT22;9169;44.492;11.372;2024-03-02T02:16:24;15.20;83.40
18085;DHT22;9169;44.492;11.372;2024-03-02T02:18:52;15.10;83.40
18085;DHT22;9169;44.492;11.372;2024-03-02T02:21:24;15.10;84.20
18085;DHT22;9169;44.492;11.372;2024-03-02T02:23:53;15.10;83.50
18085;DHT22;9169;44.492;11.372;2024-03-02T02:26:21;15.10;83.50
18085;DHT22;9169;44.492;11.372;2024-03-02T02:28:50;15.10;83.50
18085;DHT22;9169;44.492;11.372;2024-03-02T02:31:18;15.10;83.60
18085;DHT22;9169;44.492;11.372;2024-03-02T02:33:47;15.10;83.70
18085;DHT22;9169;44.492;11.372;2024-03-02T02:36:15;15.10;83.80
18085;DHT22;9169;44.492;11.372;2024-03-02T02:38:47;15.10;84.00
18085;DHT22;9169;44.492;11.372;2024-03-02T02:41:17;15.10;84.10
18085;DHT22;9169;44.492;11.372;2024-03-02T02:43:45;15.20;84.00
18085;DHT22;9169;44.492;11.372;2024-03-02T02:46:14;15.10;83.80
18085;DHT22;9169;44.492;11.372;2024-03-02T02:48:42;15.10;83.70
18085;DHT22;9169;44.492;11.372;2024-03-02T02:51:11;15.10;83.60
18085;DHT22;9169;44.492;11.372;2024-03-02T02:53:39;15.10;83.40
18085;DHT22;9169;44.492;11.372;2024-03-02T02:56:10;15.20;83.40
18085;DHT22;9169;44.492;11.372;2024-03-02T02:58:40;15.20;83.40
18085;DHT22;9169;44.492;11.372;2024-03-02T03:01:08;15.20;83.30
18085;DHT22;9169;44.492;11.372;2024-03-02T03:03:37;15.20;83.20
18085;DHT22;9169;44.492;11.372;2024-03-02T03:06:08;15.20;83.10
18085;DHT22;9169;44.492;11.372;2024-03-02T03:08:37;15.20;82.90
18085;DHT22;9169;44.492;11.372;2024-03-02T03:11:05;15.20;83.00
18085;DHT22;9169;44.492;11.372;2024-03-02T03:13:36;15.20;83.70
18085;DHT22;9169;44.492;11.372;2024-03-02T03:16:04;15.10;82.90
18085;DHT22;9169;44.492;11.372;2024-03-02T03:18:34;15.10;83.00
18085;DHT22;9169;44.492;11.372;2024-03-02T03:21:04;15.10;82.90
18085;DHT22;9169;44.492;11.372;2024-03-02T03:23:33;15.10;82.90
18085;DHT22;9169;44.492;11.372;2024-03-02T03:26:02;15.10;83.10
18085;DHT22;9169;44.492;11.372;2024-03-02T03:28:31;15.10;83.20
18085;DHT22;9169;44.492;11.372;2024-03-02T03:31:01;15.20;83.30
18085;DHT22;9169;44.492;11.372;2024-03-02T03:33:30;15.10;83.20
18085;DHT22;9169;44.492;11.372;2024-03-02T03:35:59;15.10;83.20
18085;DHT22;9169;44.492;11.372;2024-03-02T03:38:27;15.10;83.20
18085;DHT22;9169;44.492;11.372;2024-03-02T03:40:56;15.10;83.00
18085;DHT22;9169;44.492;11.372;2024-03-02T03:43:25;15.20;83.10
18085;DHT22;9169;44.492;11.372;2024-03-02T03:45:53;15.10;83.00
18085;DHT22;9169;44.492;11.372;2024-03-02T03:48:23;15.10;83.10
18085;DHT22;9169;44.492;11.372;2024-03-02T03:50:57;15.10;83.20
18085;DHT22;9169;44.492;11.372;2024-03-02T03:53:26;15.10;83.20
18085;DHT22;9169;44.492;11.372;2024-03-02T03:55:54;15.00;83.20
18085;DHT22;9169;44.492;11.372;2024-03-02T03:58:24;15.00;83.40
18085;DHT22;9169;44.492;11.372;2024-03-02T04:00:52;15.00;83.50
18085;DHT22;9169;44.492;11.372;2024-03-02T04:03:22;15.00;83.50
18085;DHT22;9169;44.492;11.372;2024-03-02T04:05:51;15.00;83.50
18085;DHT22;9169;44.492;11.372;2024-03-02T04:08:19;15.00;83.30
18085;DHT22;9169;44.492;11.372;2024-03-02T04:10:48;15.00;83.20
18085;DHT22;9169;44.492;11.372;2024-03-02T04:13:17;15.10;83.30
18085;DHT22;9169;44.492;11.372;2024-03-02T04:15:45;15.10;83.40
18085;DHT22;9169;44.492;11.372;2024-03-02T04:18:14;15.10;83.40
18085;DHT22;9169;44.492;11.372;2024-03-02T04:20:44;15.00;83.40
18085;DHT22;9169;44.492;11.372;2024-03-02T04:23:13;15.00;83.50
18085;DHT22;9169;44.492;11.372;2024-03-02T04:25:42;15.00;83.60
18085;DHT22;9169;44.492;11.372;2024-03-02T04:28:10;15.00;83.70
18085;DHT22;9169;44.492;11.372;2024-03-02T04:30:40;14.90;83.60
18085;DHT22;9169;44.492;11.372;2024-03-02T04:33:09;14.90;83.80
18085;DHT22;9169;44.492;11.372;2024-03-02T04:35:38;14.90;83.90
18085;DHT22;9169;44.492;11.372;2024-03-02T04:38:08;14.90;84.60
18085;DHT22;9169;44.492;11.372;2024-03-02T04:40:36;14.90;83.90
18085;DHT22;9169;44.492;11.372;2024-03-02T04:43:05;14.90;83.90
18085;DHT22;9169;44.492;11.372;2024-03-02T04:45:37;14.90;84.00
18085;DHT22;9169;44.492;11.372;2024-03-02T04:48:06;14.90;84.10
18085;DHT22;9169;44.492;11.372;2024-03-02T04:50:35;14.90;84.10
18085;DHT22;9169;44.492;11.372;2024-03-02T04:53:04;14.90;84.20
18085;DHT22;9169;44.492;11.372;2024-03-02T04:55:34;14.90;84.20
18085;DHT22;9169;44.492;11.372;2024-03-02T04:58:37;14.80;84.10
18085;DHT22;9169;44.492;11.372;2024-03-02T05:01:05;14.80;84.10
18085;DHT22;9169;44.492;11.372;2024-03-02T05:03:34;14.90;84.20
18085;DHT22;9169;44.492;11.372;2024-03-02T05:06:03;14.90;84.20
18085;DHT22;9169;44.492;11.372;2024-03-02T05:08:32;14.90;84.10
18085;DHT22;9169;44.492;11.372;2024-03-02T05:11:02;14.90;84.10
18085;DHT22;9169;44.492;11.372;2024-03-02T05:13:44;14.90;84.20
18085;DHT22;9169;44.492;11.372;2024-03-02T05:16:13;14.90;84.20
18085;DHT22;9169;44.492;11.372;2024-03-02T05:18:42;14.90;84.20
18085;DHT22;9169;44.492;11.372;2024-03-02T05:21:10;14.90;84.20
18085;DHT22;9169;44.492;11.372;2024-03-02T05:23:39;14.90;84.20
18085;DHT22;9169;44.492;11.372;2024-03-02T05:26:09;14.90;84.10
18085;DHT22;9169;44.492;11.372;2024-03-02T05:28:39;14.90;84.10
18085;DHT22;9169;44.492;11.372;2024-03-02T05:31:10;14.90;84.20
18085;DHT22;9169;44.492;11.372;2024-03-02T05:33:38;14.90;84.30
18085;DHT22;9169;44.492;11.372;2024-03-02T05:36:07;14.80;84.20
18085;DHT22;9169;44.492;11.372;2024-03-02T05:38:36;14.80;84.30
18085;DHT22;9169;44.492;11.372;2024-03-02T05:41:04;14.90;84.40
18085;DHT22;9169;44.492;11.372;2024-03-02T05:43:34;14.80;84.50
18085;DHT22;9169;44.492;11.372;2024-03-02T05:46:03;14.80;84.60
18085;DHT22;9169;44.492;11.372;2024-03-02T05:48:32;14.80;84.70
18085;DHT22;9169;44.492;11.372;2024-03-02T05:51:01;14.80;84.80
18085;DHT22;9169;44.492;11.372;2024-03-02T05:53:29;14.90;84.90
18085;DHT22;9169;44.492;11.372;2024-03-02T05:55:58;14.90;84.90
18085;DHT22;9169;44.492;11.372;2024-03-02T05:58:28;14.90;85.00
18085;DHT22;9169;44.492;11.372;2024-03-02T06:01:11;14.90;84.90
18085;DHT22;9169;44.492;11.372;2024-03-02T06:03:39;14.90;84.90
18085;DHT22;9169;44.492;11.372;2024-03-02T06:06:08;14.90;84.90
18085;DHT22;9169;44.492;11.372;2024-03-02T06:08:38;14.90;84.90
18085;DHT22;9169;44.492;11.372;2024-03-02T06:11:07;14.90;85.00
18085;DHT22;9169;44.492;11.372;2024-03-02T06:13:35;14.90;85.00
18085;DHT22;9169;44.492;11.372;2024-03-02T06:16:04;14.90;85.00
18085;DHT22;9169;44.492;11.372;2024-03-02T06:18:34;15.00;85.00
18085;DHT22;9169;44.492;11.372;2024-03-02T06:21:03;15.00;84.90
18085;DHT22;9169;44.492;11.372;2024-03-02T06:23:32;15.00;85.00
18085;DHT22;9169;44.492;11.372;2024-03-02T06:26:00;15.00;85.00
18085;DHT22;9169;44.492;11.372;2024-03-02T06:28:29;15.00;85.10
18085;DHT22;9169;44.492;11.372;2024-03-02T06:31:01;15.10;85.00
18085;DHT22;9169;44.492;11.372;2024-03-02T06:33:30;15.10;84.80
18085;DHT22;9169;44.492;11.372;2024-03-02T06:36:00;15.10;84.60
18085;DHT22;9169;44.492;11.372;2024-03-02T06:38:28;15.20;84.60
18085;DHT22;9169;44.492;11.372;2024-03-02T06:40:59;15.20;84.70
18085;DHT22;9169;44.492;11.372;2024-03-02T06:43:28;15.20;84.80
18085;DHT22;9169;44.492;11.372;2024-03-02T06:45:56;15.20;84.90
18085;DHT22;9169;44.492;11.372;2024-03-02T06:48:25;15.20;85.70
18085;DHT22;9169;44.492;11.372;2024-03-02T06:50:56;15.30;85.20
18085;DHT22;9169;44.492;11.372;2024-03-02T06:53:26;15.30;85.20
18085;DHT22;9169;44.492;11.372;2024-03-02T06:55:55;15.30;85.00
18085;DHT22;9169;44.492;11.372;2024-03-02T06:58:24;15.30;84.80
18085;DHT22;9169;44.492;11.372;2024-03-02T07:00:52;15.40;84.60
18085;DHT22;9169;44.492;11.372;2024-03-02T07:03:21;15.40;84.40
18085;DHT22;9169;44.492;11.372;2024-03-02T07:05:49;15.40;84.40
18085;DHT22;9169;44.492;11.372;2024-03-02T07:08:18;15.40;84.30
18085;DHT22;9169;44.492;11.372;2024-03-02T07:10:48;15.50;84.30
18085;DHT22;9169;44.492;11.372;2024-03-02T07:13:16;15.50;84.40
18085;DHT22;9169;44.492;11.372;2024-03-02T07:15:45;15.50;84.30
18085;DHT22;9169;44.492;11.372;2024-03-02T07:18:38;15.50;84.40
18085;DHT22;9169;44.492;11.372;2024-03-02T07:21:10;15.60;84.40
18085;DHT22;9169;44.492;11.372;2024-03-02T07:23:38;15.60;84.40
18085;DHT22;9169;44.492;11.372;2024-03-02T07:26:08;15.60;84.30
18085;DHT22;9169;44.492;11.372;2024-03-02T07:28:40;15.70;84.30
18085;DHT22;9169;44.492;11.372;2024-03-02T07:31:09;15.70;84.20
18085;DHT22;9169;44.492;11.372;2024-03-02T07:33:38;15.70;84.00
18085;DHT22;9169;44.492;11.372;2024-03-02T07:36:07;15.80;83.80
18085;DHT22;9169;44.492;11.372;2024-03-02T07:38:36;15.80;83.70
18085;DHT22;9169;44.492;11.372;2024-03-02T07:41:04;15.80;84.10
18085;DHT22;9169;44.492;11.372;2024-03-02T07:43:34;15.80;83.20
18085;DHT22;9169;44.492;11.372;2024-03-02T07:46:03;15.80;83.00
18085;DHT22;9169;44.492;11.372;2024-03-02T07:48:33;15.90;83.00
18085;DHT22;9169;44.492;11.372;2024-03-02T07:51:01;15.80;82.70
18085;DHT22;9169;44.492;11.372;2024-03-02T07:53:30;15.80;82.60
18085;DHT22;9169;44.492;11.372;2024-03-02T07:55:59;15.90;82.60
18085;DHT22;9169;44.492;11.372;2024-03-02T07:58:29;15.90;82.60
18085;DHT22;9169;44.492;11.372;2024-03-02T08:01:02;15.90;82.60
18085;DHT22;9169;44.492;11.372;2024-03-02T08:03:30;15.90;82.50
18085;DHT22;9169;44.492;11.372;2024-03-02T08:06:01;15.90;82.50
18085;DHT22;9169;44.492;11.372;2024-03-02T08:08:30;15.90;82.40
18085;DHT22;9169;44.492;11.372;2024-03-02T08:10:58;15.90;82.30
18085;DHT22;9169;44.492;11.372;2024-03-02T08:13:27;15.90;82.30
18085;DHT22;9169;44.492;11.372;2024-03-02T08:15:56;15.80;82.30
18085;DHT22;9169;44.492;11.372;2024-03-02T08:18:26;15.90;82.60
18085;DHT22;9169;44.492;11.372;2024-03-02T08:20:55;15.90;82.70
18085;DHT22;9169;44.492;11.372;2024-03-02T08:23:24;15.90;82.90
18085;DHT22;9169;44.492;11.372;2024-03-02T08:25:52;15.90;83.00
18085;DHT22;9169;44.492;11.372;2024-03-02T08:28:22;15.90;83.20
18085;DHT22;9169;44.492;11.372;2024-03-02T08:30:51;15.90;83.30
18085;DHT22;9169;44.492;11.372;2024-03-02T08:33:19;16.00;83.50
18085;DHT22;9169;44.492;11.372;2024-03-02T08:35:49;16.00;83.70
18085;DHT22;9169;44.492;11.372;2024-03-02T08:38:18;16.00;83.90
18085;DHT22;9169;44.492;11.372;2024-03-02T08:40:47;15.90;83.90
18085;DHT22;9169;44.492;11.372;2024-03-02T08:43:15;16.00;84.10
18085;DHT22;9169;44.492;11.372;2024-03-02T08:45:45;15.90;84.20
18085;DHT22;9169;44.492;11.372;2024-03-02T08:48:15;15.90;84.30
18085;DHT22;9169;44.492;11.372;2024-03-02T08:50:44;15.90;84.30
18085;DHT22;9169;44.492;11.372;2024-03-02T08:53:13;15.90;84.40
18085;DHT22;9169;44.492;11.372;2024-03-02T08:55:45;15.90;84.50
18085;DHT22;9169;44.492;11.372;2024-03-02T08:58:14;15.90;84.60
18085;DHT22;9169;44.492;11.372;2024-03-02T09:00:43;15.90;84.60
18085;DHT22;9169;44.492;11.372;2024-03-02T09:03:12;15.80;84.70
18085;DHT22;9169;44.492;11.372;2024-03-02T09:05:40;15.80;84.90
18085;DHT22;9169;44.492;11.372;2024-03-02T09:08:10;15.80;85.00
18085;DHT22;9169;44.492;11.372;2024-03-02T09:10:40;15.90;85.40
18085;DHT22;9169;44.492;11.372;2024-03-02T09:13:08;15.90;85.50
18085;DHT22;9169;44.492;11.372;2024-03-02T09:15:37;15.90;85.50
18085;DHT22;9169;44.492;11.372;2024-03-02T09:18:07;15.90;85.40
18085;DHT22;9169;44.492;11.372;2024-03-02T09:20:35;15.90;85.50
18085;DHT22;9169;44.492;11.372;2024-03-02T09:23:04;15.90;85.40
18085;DHT22;9169;44.492;11.372;2024-03-02T09:25:32;15.90;85.50
18085;DHT22;9169;44.492;11.372;2024-03-02T09:28:02;16.00;85.60
18085;DHT22;9169;44.492;11.372;2024-03-02T09:30:31;16.00;85.50
18085;DHT22;9169;44.492;11.372;2024-03-02T09:32:59;16.10;85.40
18085;DHT22;9169;44.492;11.372;2024-03-02T09:35:31;16.20;85.30
18085;DHT22;9169;44.492;11.372;2024-03-02T09:38:00;16.20;85.10
18085;DHT22;9169;44.492;11.372;2024-03-02T09:40:31;16.20;85.00
18085;DHT22;9169;44.492;11.372;2024-03-02T09:43:01;16.20;84.90
18085;DHT22;9169;44.492;11.372;2024-03-02T09:45:30;16.30;85.00
18085;DHT22;9169;44.492;11.372;2024-03-02T09:47:59;16.30;84.90
18085;DHT22;9169;44.492;11.372;2024-03-02T09:50:28;16.30;84.80
18085;DHT22;9169;44.492;11.372;2024-03-02T09:52:57;16.40;84.80
18085;DHT22;9169;44.492;11.372;2024-03-02T09:55:27;16.50;84.80
18085;DHT22;9169;44.492;11.372;2024-03-02T09:57:56;16.70;84.80
18085;DHT22;9169;44.492;11.372;2024-03-02T10:00:26;16.70;84.40
18085;DHT22;9169;44.492;11.372;2024-03-02T10:02:54;16.90;84.10
18085;DHT22;9169;44.492;11.372;2024-03-02T10:05:26;17.00;84.00
18085;DHT22;9169;44.492;11.372;2024-03-02T10:07:59;17.10;83.80
18085;DHT22;9169;44.492;11.372;2024-03-02T10:10:35;17.10;83.50
18085;DHT22;9169;44.492;11.372;2024-03-02T10:13:07;17.20;83.40
18085;DHT22;9169;44.492;11.372;2024-03-02T10:15:39;17.20;83.20
18085;DHT22;9169;44.492;11.372;2024-03-02T10:18:10;17.30;83.10
18085;DHT22;9169;44.492;11.372;2024-03-02T10:20:40;17.30;82.90
18085;DHT22;9169;44.492;11.372;2024-03-02T10:23:12;17.30;82.60
18085;DHT22;9169;44.492;11.372;2024-03-02T10:25:42;17.30;82.50
18085;DHT22;9169;44.492;11.372;2024-03-02T10:28:13;17.30;82.20
18085;DHT22;9169;44.492;11.372;2024-03-02T10:30:43;17.30;82.20
18085;DHT22;9169;44.492;11.372;2024-03-02T10:33:11;17.40;82.20
18085;DHT22;9169;44.492;11.372;2024-03-02T10:35:40;17.40;82.00
18085;DHT22;9169;44.492;11.372;2024-03-02T10:38:11;17.50;81.80
18085;DHT22;9169;44.492;11.372;2024-03-02T10:40:39;17.60;81.40
18085;DHT22;9169;44.492;11.372;2024-03-02T10:43:09;17.60;81.70
18085;DHT22;9169;44.492;11.372;2024-03-02T10:45:39;17.80;82.60
18085;DHT22;9169;44.492;11.372;2024-03-02T10:48:09;17.90;81.40
18085;DHT22;9169;44.492;11.372;2024-03-02T10:50:38;17.90;80.80
18085;DHT22;9169;44.492;11.372;2024-03-02T10:53:06;18.00;80.30
18085;DHT22;9169;44.492;11.372;2024-03-02T10:55:35;18.10;79.70
18085;DHT22;9169;44.492;11.372;2024-03-02T10:58:04;18.10;79.20
18085;DHT22;9169;44.492;11.372;2024-03-02T11:00:34;18.10;78.40
18085;DHT22;9169;44.492;11.372;2024-03-02T11:03:06;18.10;78.40
18085;DHT22;9169;44.492;11.372;2024-03-02T11:05:43;18.10;78.40
18085;DHT22;9169;44.492;11.372;2024-03-02T11:08:13;18.10;78.20
18085;DHT22;9169;44.492;11.372;2024-03-02T11:10:49;18.10;78.00
18085;DHT22;9169;44.492;11.372;2024-03-02T11:13:24;18.10;77.50
18085;DHT22;9169;44.492;11.372;2024-03-02T11:15:59;18.10;77.20
18085;DHT22;9169;44.492;11.372;2024-03-02T11:18:32;18.10;77.10
18085;DHT22;9169;44.492;11.372;2024-03-02T11:21:02;18.10;76.80
18085;DHT22;9169;44.492;11.372;2024-03-02T11:23:32;18.10;76.50
18085;DHT22;9169;44.492;11.372;2024-03-02T11:26:25;18.10;76.50
18085;DHT22;9169;44.492;11.372;2024-03-02T11:28:58;18.10;76.30
18085;DHT22;9169;44.492;11.372;2024-03-02T11:31:57;18.10;76.20
18085;DHT22;9169;44.492;11.372;2024-03-02T11:34:30;18.00;76.30
18085;DHT22;9169;44.492;11.372;2024-03-02T11:37:01;18.00;76.70
18085;DHT22;9169;44.492;11.372;2024-03-02T11:39:31;18.00;76.70
18085;DHT22;9169;44.492;11.372;2024-03-02T11:42:00;18.00;76.50
18085;DHT22;9169;44.492;11.372;2024-03-02T11:44:28;18.00;76.70
18085;DHT22;9169;44.492;11.372;2024-03-02T11:46:58;18.10;76.50
18085;DHT22;9169;44.492;11.372;2024-03-02T11:49:37;18.20;76.00
18085;DHT22;9169;44.492;11.372;2024-03-02T11:52:09;18.30;75.20
18085;DHT22;9169;44.492;11.372;2024-03-02T11:54:39;18.40;74.80
18085;DHT22;9169;44.492;11.372;2024-03-02T11:57:08;18.40;74.50
18085;DHT22;9169;44.492;11.372;2024-03-02T11:59:37;18.30;74.10
18085;DHT22;9169;44.492;11.372;2024-03-02T12:02:06;18.30;74.10
18085;DHT22;9169;44.492;11.372;2024-03-02T12:04:34;18.30;73.90
18085;DHT22;9169;44.492;11.372;2024-03-02T12:07:08;18.20;73.70
18085;DHT22;9169;44.492;11.372;2024-03-02T12:09:37;18.10;73.80
18085;DHT22;9169;44.492;11.372;2024-03-02T12:12:07;18.00;73.90
18085;DHT22;9169;44.492;11.372;2024-03-02T12:14:37;17.90;73.90
18085;DHT22;9169;44.492;11.372;2024-03-02T12:17:06;17.90;73.80
18085;DHT22;9169;44.492;11.372;2024-03-02T12:19:35;17.80;73.80
18085;DHT22;9169;44.492;11.372;2024-03-02T12:22:06;17.70;73.90
18085;DHT22;9169;44.492;11.372;2024-03-02T12:24:35;17.70;74.00
18085;DHT22;9169;44.492;11.372;2024-03-02T12:27:05;17.80;74.70
18085;DHT22;9169;44.492;11.372;2024-03-02T12:29:34;17.90;75.50
18085;DHT22;9169;44.492;11.372;2024-03-02T12:32:03;18.10;75.70
18085;DHT22;9169;44.492;11.372;2024-03-02T12:34:32;18.20;75.00
18085;DHT22;9169;44.492;11.372;2024-03-02T12:37:01;18.30;74.10
18085;DHT22;9169;44.492;11.372;2024-03-02T12:39:32;18.30;73.10
18085;DHT22;9169;44.492;11.372;2024-03-02T12:42:03;18.20;72.80
18085;DHT22;9169;44.492;11.372;2024-03-02T12:44:31;18.10;72.70
18085;DHT22;9169;44.492;11.372;2024-03-02T12:47:00;18.10;72.90
18085;DHT22;9169;44.492;11.372;2024-03-02T12:49:30;18.10;73.10
18085;DHT22;9169;44.492;11.372;2024-03-02T12:51:59;18.10;73.30
18085;DHT22;9169;44.492;11.372;2024-03-02T12:54:29;18.10;73.20
18085;DHT22;9169;44.492;11.372;2024-03-02T12:56:59;18.00;72.90
18085;DHT22;9169;44.492;11.372;2024-03-02T12:59:28;18.00;73.00
18085;DHT22;9169;44.492;11.372;2024-03-02T13:01:57;18.00;73.20
18085;DHT22;9169;44.492;11.372;2024-03-02T13:04:27;18.10;73.60
18085;DHT22;9169;44.492;11.372;2024-03-02T13:06:56;18.10;74.10
18085;DHT22;9169;44.492;11.372;2024-03-02T13:09:25;18.20;75.50
18085;DHT22;9169;44.492;11.372;2024-03-02T13:11:54;18.50;79.60
18085;DHT22;9169;44.492;11.372;2024-03-02T13:14:25;19.00;79.40
18085;DHT22;9169;44.492;11.372;2024-03-02T13:16:54;19.20;77.20
18085;DHT22;9169;44.492;11.372;2024-03-02T13:19:24;19.40;77.50
18085;DHT22;9169;44.492;11.372;2024-03-02T13:21:52;19.70;75.70
18085;DHT22;9169;44.492;11.372;2024-03-02T13:24:21;19.80;74.20
18085;DHT22;9169;44.492;11.372;2024-03-02T13:26:52;19.80;72.40
18085;DHT22;9169;44.492;11.372;2024-03-02T13:29:22;19.80;71.20
18085;DHT22;9169;44.492;11.372;2024-03-02T13:31:52;19.70;70.00
18085;DHT22;9169;44.492;11.372;2024-03-02T13:34:21;19.60;69.10
18085;DHT22;9169;44.492;11.372;2024-03-02T13:36:50;19.50;68.60
18085;DHT22;9169;44.492;11.372;2024-03-02T13:39:19;19.40;68.30
18085;DHT22;9169;44.492;11.372;2024-03-02T13:41:48;19.30;68.60
18085;DHT22;9169;44.492;11.372;2024-03-02T13:44:20;19.10;68.20
18085;DHT22;9169;44.492;11.372;2024-03-02T13:46:49;19.10;68.20
18085;DHT22;9169;44.492;11.372;2024-03-02T13:49:20;19.00;68.60
18085;DHT22;9169;44.492;11.372;2024-03-02T13:51:48;19.00;69.50
18085;DHT22;9169;44.492;11.372;2024-03-02T13:54:17;19.10;72.60
18085;DHT22;9169;44.492;11.372;2024-03-02T13:56:46;19.50;76.70
18085;DHT22;9169;44.492;11.372;2024-03-02T13:59:15;20.10;78.90
18085;DHT22;9169;44.492;11.372;2024-03-02T14:01:44;20.90;79.30
18085;DHT22;9169;44.492;11.372;2024-03-02T14:04:13;21.70;78.30
18085;DHT22;9169;44.492;11.372;2024-03-02T14:06:44;22.60;78.60
18085;DHT22;9169;44.492;11.372;2024-03-02T14:09:13;23.40;76.00
18085;DHT22;9169;44.492;11.372;2024-03-02T14:11:42;24.10;75.60
18085;DHT22;9169;44.492;11.372;2024-03-02T14:14:10;24.80;71.70
18085;DHT22;9169;44.492;11.372;2024-03-02T14:16:39;25.30;70.20
18085;DHT22;9169;44.492;11.372;2024-03-02T14:19:08;25.60;66.30
18085;DHT22;9169;44.492;11.372;2024-03-02T14:21:37;25.80;61.80
18085;DHT22;9169;44.492;11.372;2024-03-02T14:24:07;25.70;59.20
18085;DHT22;9169;44.492;11.372;2024-03-02T14:26:37;25.50;57.60
18085;DHT22;9169;44.492;11.372;2024-03-02T14:29:05;25.20;56.80
18085;DHT22;9169;44.492;11.372;2024-03-02T14:31:34;25.00;56.10
18085;DHT22;9169;44.492;11.372;2024-03-02T14:34:03;24.60;55.50
18085;DHT22;9169;44.492;11.372;2024-03-02T14:36:31;24.30;55.40
18085;DHT22;9169;44.492;11.372;2024-03-02T14:39:01;23.90;55.10
18085;DHT22;9169;44.492;11.372;2024-03-02T14:41:32;23.70;55.40
18085;DHT22;9169;44.492;11.372;2024-03-02T14:44:01;23.50;56.80
18085;DHT22;9169;44.492;11.372;2024-03-02T14:46:30;23.40;56.90
18085;DHT22;9169;44.492;11.372;2024-03-02T14:48:59;23.40;57.00
18085;DHT22;9169;44.492;11.372;2024-03-02T14:51:28;23.30;57.60
18085;DHT22;9169;44.492;11.372;2024-03-02T14:53:57;23.40;58.10
18085;DHT22;9169;44.492;11.372;2024-03-02T14:56:25;23.60;57.70
18085;DHT22;9169;44.492;11.372;2024-03-02T14:58:57;23.60;56.60
18085;DHT22;9169;44.492;11.372;2024-03-02T15:01:25;23.40;55.80
18085;DHT22;9169;44.492;11.372;2024-03-02T15:03:54;23.10;55.60
18085;DHT22;9169;44.492;11.372;2024-03-02T15:06:23;22.90;55.80
18085;DHT22;9169;44.492;11.372;2024-03-02T15:08:51;22.60;55.70
18085;DHT22;9169;44.492;11.372;2024-03-02T15:11:21;22.30;56.00
18085;DHT22;9169;44.492;11.372;2024-03-02T15:13:52;22.10;56.20
18085;DHT22;9169;44.492;11.372;2024-03-02T15:16:22;21.90;56.40
18085;DHT22;9169;44.492;11.372;2024-03-02T15:18:51;21.60;56.60
18085;DHT22;9169;44.492;11.372;2024-03-02T15:21:20;21.40;56.80
18085;DHT22;9169;44.492;11.372;2024-03-02T15:23:49;21.10;57.10
18085;DHT22;9169;44.492;11.372;2024-03-02T15:26:18;20.90;57.50
18085;DHT22;9169;44.492;11.372;2024-03-02T15:28:46;20.80;57.80
18085;DHT22;9169;44.492;11.372;2024-03-02T15:31:15;20.70;58.20
18085;DHT22;9169;44.492;11.372;2024-03-02T15:33:46;20.50;58.20
18085;DHT22;9169;44.492;11.372;2024-03-02T15:36:14;20.40;58.30
18085;DHT22;9169;44.492;11.372;2024-03-02T15:38:43;20.20;58.60
18085;DHT22;9169;44.492;11.372;2024-03-02T15:41:11;20.10;58.80
18085;DHT22;9169;44.492;11.372;2024-03-02T15:43:40;20.00;58.90
18085;DHT22;9169;44.492;11.372;2024-03-02T15:46:10;19.90;59.20